createdAt,value
2022-09-23T00:01:05.434Z,10.33
2022-09-23T00:03:32.981Z,10.01
2022-09-23T00:06:01.522Z,10.21
2022-09-23T00:08:28.986Z,9.61
2022-09-23T00:10:56.501Z,9.93
2022-09-23T00:13:26.106Z,9.91
2022-09-23T00:15:52.969Z,8.89
2022-09-23T00:18:21.103Z,9.94
2022-09-23T00:20:48.079Z,9.36
2022-09-23T00:23:14.867Z,9.94
2022-09-23T00:25:41.468Z,9.43
2022-09-23T00:28:08.071Z,9.88
2022-09-23T00:30:34.705Z,9.81
2022-09-23T00:33:01.242Z,9.77
2022-09-23T00:35:27.851Z,9.74
2022-09-23T00:37:54.422Z,9.71
2022-09-23T00:40:21.227Z,9.29
2022-09-23T00:42:49.424Z,9.32
2022-09-23T00:45:16.989Z,8.42
2022-09-23T00:48:02.820Z,9.50
2022-09-23T00:50:42.990Z,8.66
2022-09-23T00:53:15.361Z,7.92
2022-09-23T00:55:49.209Z,8.31
2022-09-23T00:58:20.231Z,8.63
2022-09-23T01:00:47.154Z,6.58
2022-09-23T01:03:14.529Z,8.50
2022-09-23T01:05:42.193Z,6.06
2022-09-23T01:08:11.375Z,8.01
2022-09-23T01:11:06.192Z,8.38
2022-09-23T01:14:08.087Z,8.35
2022-09-23T01:16:54.576Z,8.31
2022-09-23T01:19:36.271Z,8.30
2022-09-23T01:22:27.770Z,8.28
2022-09-23T01:25:27.317Z,8.36
2022-09-23T01:28:12.680Z,8.43
2022-09-23T01:30:45.593Z,8.39
2022-09-23T01:33:37.595Z,6.74
2022-09-23T01:36:16.364Z,8.36
2022-09-23T01:39:08.007Z,7.63
2022-09-23T01:42:02.147Z,8.27
2022-09-23T01:44:47.682Z,8.36
2022-09-23T01:47:19.218Z,8.40
2022-09-23T01:50:03.808Z,8.38
2022-09-23T01:52:43.371Z,7.96
2022-09-23T01:55:25.780Z,8.52
2022-09-23T01:58:04.979Z,8.45
2022-09-23T02:00:37.359Z,8.46
2022-09-23T02:03:13.552Z,6.15
2022-09-23T02:05:43.889Z,7.52
2022-09-23T02:08:24.659Z,8.28
2022-09-23T02:11:11.669Z,8.21
2022-09-23T02:13:54.107Z,8.10
2022-09-23T02:16:26.616Z,7.93
2022-09-23T02:18:59.488Z,5.19
2022-09-23T02:21:38.336Z,7.77
2022-09-23T02:24:14.944Z,7.72
2022-09-23T02:26:53.476Z,7.76
2022-09-23T02:29:28.768Z,7.70
2022-09-23T02:32:04.449Z,7.66
2022-09-23T02:34:51.560Z,7.63
2022-09-23T02:37:25.704Z,7.49
2022-09-23T02:40:18.470Z,7.44
2022-09-23T02:43:03.481Z,7.57
2022-09-23T02:45:31.191Z,6.72
2022-09-23T02:48:04.177Z,7.44
2022-09-23T02:50:32.361Z,6.32
2022-09-23T02:53:00.816Z,7.42
2022-09-23T02:55:33.286Z,7.06
2022-09-23T02:58:01.741Z,6.84
2022-09-23T03:00:45.212Z,7.32
2022-09-23T03:03:39.746Z,7.32
2022-09-23T03:06:36.561Z,6.07
2022-09-23T03:09:26.547Z,6.74
2022-09-23T03:12:02.753Z,7.03
2022-09-23T03:14:41.133Z,7.12
2022-09-23T03:17:16.050Z,6.25
2022-09-23T03:20:02.798Z,7.11
2022-09-23T03:22:34.418Z,7.06
2022-09-23T03:25:09.276Z,6.07
2022-09-23T03:27:38.342Z,6.97
2022-09-23T03:30:07.192Z,6.89
2022-09-23T03:32:34.996Z,7.05
2022-09-23T03:35:04.083Z,7.13
2022-09-23T03:37:35.891Z,7.23
2022-09-23T03:40:24.116Z,7.11
2022-09-23T03:42:51.560Z,7.03
2022-09-23T03:45:23.883Z,6.66
2022-09-23T03:47:50.516Z,6.95
2022-09-23T03:50:21.339Z,3.47
2022-09-23T03:52:49.681Z,7.00
2022-09-23T03:55:18.107Z,6.95
2022-09-23T03:57:45.289Z,5.76
2022-09-23T04:00:13.783Z,6.92
2022-09-23T04:02:40.985Z,6.83
2022-09-23T04:05:09.499Z,6.87
2022-09-23T04:07:36.192Z,6.88
2022-09-23T04:10:03.028Z,6.63
2022-09-23T04:12:29.600Z,6.79
2022-09-23T04:14:56.184Z,6.18
2022-09-23T04:17:22.852Z,6.56
2022-09-23T04:19:49.436Z,6.80
2022-09-23T04:22:16.033Z,6.90
2022-09-23T04:24:42.687Z,5.80
2022-09-23T04:27:09.574Z,7.01
2022-09-23T04:29:36.190Z,6.18
2022-09-23T04:32:02.902Z,6.00
2022-09-23T04:34:29.476Z,6.20
2022-09-23T04:36:56.001Z,7.00
2022-09-23T04:39:22.639Z,6.44
2022-09-23T04:41:49.192Z,5.96
2022-09-23T04:44:16.200Z,7.31
2022-09-23T04:46:44.856Z,7.45
2022-09-23T04:49:13.044Z,7.44
2022-09-23T04:51:43.368Z,7.70
2022-09-23T04:54:11.857Z,7.79
2022-09-23T04:56:39.789Z,5.70
2022-09-23T04:59:07.094Z,7.92
2022-09-23T05:01:35.277Z,7.67
2022-09-23T05:04:05.487Z,7.52
2022-09-23T05:06:36.678Z,7.71
2022-09-23T05:09:06.939Z,7.37
2022-09-23T05:11:34.433Z,7.58
2022-09-23T05:14:01.125Z,8.27
2022-09-23T05:16:27.837Z,8.27
2022-09-23T05:18:55.174Z,8.78
2022-09-23T05:21:24.520Z,8.95
2022-09-23T05:23:56.560Z,9.03
2022-09-23T05:26:25.653Z,8.88
2022-09-23T05:28:54.036Z,9.38
2022-09-23T05:31:23.061Z,9.43
2022-09-23T05:33:52.593Z,9.44
2022-09-23T05:36:21.347Z,9.59
2022-09-23T05:38:50.084Z,9.20
2022-09-23T05:41:17.886Z,10.05
2022-09-23T05:43:44.714Z,9.87
2022-09-23T05:46:16.575Z,9.05
2022-09-23T05:48:45.940Z,10.30
2022-09-23T05:51:20.931Z,10.48
2022-09-23T05:53:48.684Z,10.61
2022-09-23T05:56:18.102Z,9.80
2022-09-23T05:58:45.455Z,10.79
2022-09-23T06:01:26.642Z,10.91
2022-09-23T06:03:55.040Z,10.66
2022-09-23T06:06:27.455Z,10.08
2022-09-23T06:08:54.171Z,9.34
2022-09-23T06:11:21.624Z,10.14
2022-09-23T06:13:49.410Z,8.40
2022-09-23T06:16:16.620Z,10.59
2022-09-23T06:18:45.198Z,11.02
2022-09-23T06:21:16.985Z,11.38
2022-09-23T06:23:44.820Z,11.69
2022-09-23T06:26:13.673Z,10.86
2022-09-23T06:28:41.607Z,8.76
2022-09-23T06:31:13.746Z,12.33
2022-09-23T06:33:42.209Z,12.32
2022-09-23T06:36:09.506Z,12.19
2022-09-23T06:38:39.664Z,12.54
2022-09-23T06:41:07.088Z,13.23
2022-09-23T06:43:33.977Z,13.02
2022-09-23T06:46:03.895Z,11.42
2022-09-23T06:48:34.266Z,13.20
2022-09-23T06:51:03.113Z,13.02
2022-09-23T06:53:33.207Z,12.11
2022-09-23T06:56:04.363Z,13.55
2022-09-23T06:58:32.804Z,13.22
2022-09-23T07:01:05.066Z,13.43
2022-09-23T07:03:34.930Z,13.60
2022-09-23T07:06:02.362Z,13.29
2022-09-23T07:08:30.378Z,13.92
2022-09-23T07:10:59.254Z,13.88
2022-09-23T07:13:26.839Z,14.12
2022-09-23T07:15:55.891Z,14.78
2022-09-23T07:18:25.971Z,15.00
2022-09-23T07:20:53.924Z,14.08
2022-09-23T07:23:21.270Z,15.03
2022-09-23T07:25:49.519Z,15.49
2022-09-23T07:28:16.437Z,15.44
2022-09-23T07:30:56.772Z,15.39
2022-09-23T07:33:32.158Z,15.37
2022-09-23T07:35:59.431Z,16.08
2022-09-23T07:38:30.200Z,16.51
2022-09-23T07:41:23.852Z,16.74
2022-09-23T07:43:52.725Z,16.93
2022-09-23T07:46:19.586Z,15.51
2022-09-23T07:48:46.477Z,16.18
2022-09-23T07:51:26.075Z,17.04
2022-09-23T07:53:54.129Z,16.94
2022-09-23T07:56:24.134Z,15.74
2022-09-23T07:59:00.320Z,17.25
2022-09-23T08:01:36.176Z,17.03
2022-09-23T08:04:06.702Z,17.02
2022-09-23T08:06:33.794Z,16.23
2022-09-23T08:09:01.133Z,17.36
2022-09-23T08:11:28.377Z,17.82
2022-09-23T08:13:55.079Z,17.46
2022-09-23T08:16:22.142Z,17.71
2022-09-23T08:18:49.172Z,18.27
2022-09-23T08:21:23.133Z,18.45
2022-09-23T08:23:49.947Z,17.73
2022-09-23T08:26:21.670Z,17.52
2022-09-23T08:28:48.740Z,18.06
2022-09-23T08:31:15.402Z,18.24
2022-09-23T08:33:42.124Z,18.60
2022-09-23T08:36:08.957Z,17.93
2022-09-23T08:38:35.847Z,18.13
2022-09-23T08:41:49.003Z,18.82
2022-09-23T08:44:34.495Z,18.61
2022-09-23T08:47:15.925Z,18.16
2022-09-23T08:49:55.687Z,19.05
2022-09-23T08:52:34.561Z,19.08
2022-09-23T08:55:03.135Z,18.60
2022-09-23T08:57:29.635Z,18.54
2022-09-23T08:59:56.947Z,18.24
2022-09-23T09:02:23.745Z,18.63
2022-09-23T09:05:05.320Z,18.82
2022-09-23T09:07:37.483Z,18.82
2022-09-23T09:10:13.666Z,19.19
2022-09-23T09:13:17.053Z,19.02
2022-09-23T09:16:06.966Z,19.45
2022-09-23T09:18:35.659Z,19.46
2022-09-23T09:21:26.540Z,19.65
2022-09-23T09:23:59.719Z,17.63
2022-09-23T09:26:33.505Z,18.64
2022-09-23T09:29:33.780Z,18.65
2022-09-23T09:31:57.766Z,18.23
2022-09-23T09:34:24.391Z,17.76
2022-09-23T09:37:27.513Z,14.47
2022-09-23T09:39:54.054Z,17.12
2022-09-23T09:42:26.138Z,17.06
2022-09-23T09:44:59.839Z,17.32
2022-09-23T09:47:46.817Z,17.61
2022-09-23T09:50:22.065Z,17.68
2022-09-23T09:52:49.100Z,18.20
2022-09-23T09:55:28.363Z,18.00
2022-09-23T09:57:54.861Z,18.15
2022-09-23T10:00:27.794Z,18.42
2022-09-23T10:02:59.409Z,18.73
2022-09-23T10:05:42.969Z,18.00
2022-09-23T10:08:18.596Z,17.60
2022-09-23T10:10:55.800Z,17.69
2022-09-23T10:13:26.459Z,18.06
2022-09-23T10:15:55.048Z,17.17
2022-09-23T10:18:34.545Z,18.28
2022-09-23T10:21:07.218Z,18.49
2022-09-23T10:23:40.555Z,18.55
2022-09-23T10:26:12.093Z,18.01
2022-09-23T10:28:38.753Z,18.58
2022-09-23T10:31:08.755Z,18.08
2022-09-23T10:33:41.854Z,17.39
2022-09-23T10:36:11.480Z,17.39
2022-09-23T10:38:38.329Z,18.37
2022-09-23T10:41:31.388Z,17.93
2022-09-23T10:44:40.254Z,19.19
2022-09-23T10:47:37.484Z,19.40
2022-09-23T10:50:24.359Z,19.71
2022-09-23T10:53:05.143Z,19.78
2022-09-23T10:55:54.339Z,19.92
2022-09-23T10:58:27.278Z,20.02
2022-09-23T11:01:16.311Z,19.89
2022-09-23T11:03:48.887Z,20.79
2022-09-23T11:06:25.981Z,20.79
2022-09-23T11:09:02.186Z,20.99
2022-09-23T11:11:47.579Z,21.21
2022-09-23T11:14:23.226Z,21.30
2022-09-23T11:17:14.766Z,20.93
2022-09-23T11:20:12.233Z,20.52
2022-09-23T11:23:05.661Z,19.60
2022-09-23T11:25:51.548Z,18.77
2022-09-23T11:28:29.491Z,18.51
2022-09-23T11:31:20.519Z,17.78
2022-09-23T11:33:53.064Z,17.62
2022-09-23T11:36:27.044Z,17.68
2022-09-23T11:38:57.067Z,17.09
2022-09-23T11:41:29.423Z,15.96
2022-09-23T11:44:04.367Z,16.06
2022-09-23T11:46:34.826Z,16.09
2022-09-23T11:49:07.396Z,16.28
2022-09-23T11:51:58.522Z,16.10
2022-09-23T11:54:34.961Z,15.53
2022-09-23T11:57:06.617Z,16.20
2022-09-23T11:59:40.497Z,15.82
2022-09-23T12:02:33.594Z,15.72
2022-09-23T12:05:23.090Z,15.55
2022-09-23T12:08:04.980Z,16.25
2022-09-23T12:11:06.947Z,16.36
2022-09-23T12:14:08.750Z,16.86
2022-09-23T12:16:41.169Z,17.56
2022-09-23T12:19:45.579Z,18.10
2022-09-23T12:22:14.854Z,18.64
2022-09-23T12:24:44.446Z,18.91
2022-09-23T12:27:29.360Z,18.78
2022-09-23T12:30:14.110Z,18.40
2022-09-23T12:32:42.395Z,19.20
2022-09-23T12:35:24.233Z,19.14
2022-09-23T12:37:51.934Z,18.92
2022-09-23T12:40:30.320Z,19.12
2022-09-23T12:43:01.151Z,19.19
2022-09-23T12:45:37.359Z,19.54
2022-09-23T12:48:28.002Z,19.58
2022-09-23T12:51:16.364Z,19.60
2022-09-23T12:53:52.760Z,19.67
2022-09-23T12:56:48.470Z,19.75
2022-09-23T12:59:18.081Z,20.04
2022-09-23T13:01:45.020Z,20.12
2022-09-23T13:05:01.337Z,18.83
2022-09-23T13:07:32.211Z,20.46
2022-09-23T13:10:09.069Z,15.06
2022-09-23T13:12:39.736Z,20.13
2022-09-23T13:15:17.173Z,19.45
2022-09-23T13:17:43.806Z,18.98
2022-09-23T13:20:19.668Z,17.48
2022-09-23T13:22:48.976Z,18.08
2022-09-23T13:25:24.141Z,18.23
2022-09-23T13:27:54.033Z,18.20
2022-09-23T13:30:26.508Z,17.71
2022-09-23T13:33:14.253Z,18.37
2022-09-23T13:35:46.361Z,18.08
2022-09-23T13:38:25.740Z,19.04
2022-09-23T13:41:19.402Z,17.57
2022-09-23T13:43:59.590Z,18.25
2022-09-23T13:46:29.861Z,18.59
2022-09-23T13:48:57.027Z,19.42
2022-09-23T13:51:36.572Z,20.49
2022-09-23T13:54:04.842Z,20.16
2022-09-23T13:56:35.362Z,22.17
2022-09-23T13:59:38.477Z,23.23
2022-09-23T14:02:19.908Z,23.96
2022-09-23T14:04:47.003Z,25.83
2022-09-23T14:07:16.466Z,26.03
2022-09-23T14:09:45.499Z,25.63
2022-09-23T14:12:13.126Z,23.60
2022-09-23T14:14:42.055Z,22.10
2022-09-23T14:17:10.332Z,21.10
2022-09-23T14:19:37.455Z,20.59
2022-09-23T14:22:04.125Z,20.58
2022-09-23T14:24:38.519Z,20.20
2022-09-23T14:27:08.091Z,20.02
2022-09-23T14:29:40.452Z,19.87
2022-09-23T14:32:19.107Z,19.83
2022-09-23T14:35:01.165Z,19.77
2022-09-23T14:37:51.113Z,19.70
2022-09-23T14:40:35.065Z,19.78
2022-09-23T14:43:07.290Z,18.47
2022-09-23T14:45:37.393Z,16.34
2022-09-23T14:48:10.312Z,18.18
2022-09-23T14:50:38.130Z,16.10
2022-09-23T14:53:23.912Z,18.25
2022-09-23T14:56:06.698Z,17.82
2022-09-23T14:58:58.718Z,18.09
2022-09-23T15:01:31.382Z,18.15
2022-09-23T15:04:36.514Z,18.18
2022-09-23T15:07:16.125Z,17.85
2022-09-23T15:09:44.816Z,17.79
2022-09-23T15:12:13.560Z,18.17
2022-09-23T15:14:52.754Z,18.09
2022-09-23T15:17:28.045Z,17.85
2022-09-23T15:19:58.375Z,18.01
2022-09-23T15:22:25.634Z,17.93
2022-09-23T15:24:53.961Z,17.88
2022-09-23T15:27:33.353Z,17.84
2022-09-23T15:30:15.983Z,17.10
2022-09-23T15:32:46.624Z,17.55
2022-09-23T15:35:19.852Z,17.36
2022-09-23T15:37:49.385Z,17.40
2022-09-23T15:40:28.201Z,17.25
2022-09-23T15:42:57.937Z,17.12
2022-09-23T15:45:35.282Z,16.98
2022-09-23T15:48:08.150Z,16.70
2022-09-23T15:50:36.870Z,16.71
2022-09-23T15:53:04.839Z,16.24
2022-09-23T15:55:32.020Z,15.67
2022-09-23T15:57:58.694Z,16.10
2022-09-23T16:00:25.579Z,16.02
2022-09-23T16:02:52.481Z,16.22
2022-09-23T16:05:34.879Z,15.99
2022-09-23T16:08:07.881Z,15.68
2022-09-23T16:10:36.410Z,15.28
2022-09-23T16:13:05.105Z,15.57
2022-09-23T16:15:32.573Z,15.21
2022-09-23T16:18:00.118Z,15.06
2022-09-23T16:20:29.878Z,15.10
2022-09-23T16:23:02.185Z,14.55
2022-09-23T16:25:31.699Z,14.93
2022-09-23T16:27:58.539Z,14.83
2022-09-23T16:30:31.154Z,14.57
2022-09-23T16:32:57.744Z,13.93
2022-09-23T16:35:27.133Z,14.23
2022-09-23T16:37:53.918Z,14.11
2022-09-23T16:40:22.518Z,13.87
2022-09-23T16:42:52.425Z,13.62
2022-09-23T16:45:22.387Z,13.66
2022-09-23T16:47:51.190Z,13.37
2022-09-23T16:50:20.640Z,13.14
2022-09-23T16:52:47.338Z,13.02
2022-09-23T16:55:14.937Z,13.04
2022-09-23T16:57:42.015Z,13.01
2022-09-23T17:00:31.983Z,12.77
2022-09-23T17:03:17.633Z,12.18
2022-09-23T17:05:46.759Z,12.66
2022-09-23T17:08:14.822Z,12.49
2022-09-23T17:10:43.095Z,12.21
2022-09-23T17:13:10.418Z,12.35
2022-09-23T17:15:38.490Z,12.39
2022-09-23T17:18:08.802Z,12.25
2022-09-23T17:20:36.340Z,12.21
2022-09-23T17:23:06.250Z,12.11
2022-09-23T17:25:34.109Z,12.15
2022-09-23T17:28:01.060Z,12.14
2022-09-23T17:30:28.836Z,12.07
2022-09-23T17:32:55.462Z,12.07
2022-09-23T17:35:22.016Z,11.59
2022-09-23T17:37:48.590Z,11.88
2022-09-23T17:40:15.277Z,11.74
2022-09-23T17:42:42.192Z,11.36
2022-09-23T17:45:12.480Z,11.82
2022-09-23T17:47:41.797Z,11.46
2022-09-23T17:50:08.695Z,10.19
2022-09-23T17:52:35.288Z,11.67
2022-09-23T17:55:01.931Z,10.78
2022-09-23T17:57:28.552Z,11.49
2022-09-23T17:59:56.143Z,10.72
2022-09-23T18:02:22.835Z,11.41
2022-09-23T18:04:49.780Z,11.45
2022-09-23T18:07:16.389Z,11.45
2022-09-23T18:09:42.976Z,11.35
2022-09-23T18:12:09.628Z,11.24
2022-09-23T18:14:36.297Z,11.31
2022-09-23T18:17:02.912Z,10.96
2022-09-23T18:19:29.453Z,10.98
2022-09-23T18:21:57.319Z,11.18
2022-09-23T18:24:33.110Z,10.64
2022-09-23T18:27:00.949Z,10.84
2022-09-23T18:29:27.669Z,10.77
2022-09-23T18:31:54.426Z,10.73
2022-09-23T18:34:23.637Z,10.70
2022-09-23T18:36:50.685Z,10.67
2022-09-23T18:39:17.578Z,9.81
2022-09-23T18:41:44.347Z,10.21
2022-09-23T18:44:11.277Z,9.80
2022-09-23T18:46:38.386Z,10.32
2022-09-23T18:49:23.682Z,10.23
2022-09-23T18:51:53.882Z,10.32
2022-09-23T18:54:21.613Z,9.97
2022-09-23T18:56:50.199Z,9.99
2022-09-23T18:59:20.751Z,10.17
2022-09-23T19:01:50.061Z,10.26
2022-09-23T19:04:19.612Z,9.91
2022-09-23T19:06:46.332Z,9.99
2022-09-23T19:09:15.152Z,9.04
2022-09-23T19:11:42.220Z,10.09
2022-09-23T19:14:11.497Z,10.15
2022-09-23T19:16:39.757Z,9.86
2022-09-23T19:19:06.724Z,9.14
2022-09-23T19:21:35.315Z,9.76
2022-09-23T19:24:05.567Z,10.21
2022-09-23T19:26:34.155Z,9.64
2022-09-23T19:29:02.850Z,9.76
2022-09-23T19:31:33.552Z,10.33
2022-09-23T19:34:00.431Z,10.28
2022-09-23T19:36:30.074Z,10.14
2022-09-23T19:38:59.141Z,9.99
2022-09-23T19:41:28.263Z,9.94
2022-09-23T19:43:55.542Z,9.75
2022-09-23T19:46:23.247Z,8.17
2022-09-23T19:48:51.869Z,9.73
2022-09-23T19:51:19.486Z,8.82
2022-09-23T19:53:46.826Z,9.70
2022-09-23T19:56:17.965Z,9.70
2022-09-23T19:58:51.114Z,9.40
2022-09-23T20:01:18.928Z,9.65
2022-09-23T20:03:47.171Z,9.63
2022-09-23T20:06:14.927Z,9.58
2022-09-23T20:08:42.166Z,9.20
2022-09-23T20:11:11.152Z,9.53
2022-09-23T20:13:42.579Z,9.42
2022-09-23T20:16:11.317Z,9.17
2022-09-23T20:18:39.056Z,9.62
2022-09-23T20:21:09.822Z,9.15
2022-09-23T20:23:36.718Z,9.36
2022-09-23T20:26:23.353Z,9.36
2022-09-23T20:28:50.387Z,9.38
2022-09-23T20:31:18.755Z,9.35
2022-09-23T20:33:46.550Z,9.26
2022-09-23T20:36:13.496Z,9.01
2022-09-23T20:38:40.568Z,8.61
2022-09-23T20:41:09.352Z,8.97
2022-09-23T20:43:36.444Z,8.93
2022-09-23T20:46:05.381Z,8.92
2022-09-23T20:48:32.138Z,7.92
2022-09-23T20:51:05.811Z,8.99
2022-09-23T20:53:32.952Z,9.00
2022-09-23T20:55:59.852Z,8.78
2022-09-23T20:58:29.245Z,9.03
2022-09-23T21:01:04.797Z,8.90
2022-09-23T21:03:32.906Z,8.97
2022-09-23T21:06:03.892Z,8.93
2022-09-23T21:08:31.375Z,8.90
2022-09-23T21:10:59.206Z,8.74
2022-09-23T21:13:25.836Z,8.75
2022-09-23T21:15:52.586Z,8.01
2022-09-23T21:18:22.366Z,8.73
2022-09-23T21:20:59.312Z,8.65
2022-09-23T21:23:38.224Z,8.64
2022-09-23T21:26:10.564Z,8.53
2022-09-23T21:28:40.047Z,8.49
2022-09-23T21:31:27.642Z,8.49
2022-09-23T21:34:01.020Z,8.38
2022-09-23T21:36:28.212Z,8.40
2022-09-23T21:38:59.012Z,8.30
2022-09-23T21:41:25.753Z,8.36
2022-09-23T21:43:52.361Z,8.34
2022-09-23T21:46:20.864Z,8.21
2022-09-23T21:48:51.917Z,8.23
2022-09-23T21:51:21.413Z,8.23
2022-09-23T21:53:48.011Z,7.89
2022-09-23T21:56:20.783Z,8.26
2022-09-23T21:58:48.804Z,8.26
2022-09-23T22:01:17.643Z,8.18
2022-09-23T22:03:52.498Z,8.13
2022-09-23T22:06:24.362Z,7.68
2022-09-23T22:08:54.366Z,8.08
2022-09-23T22:11:43.218Z,8.15
2022-09-23T22:14:12.487Z,8.11
2022-09-23T22:16:40.286Z,7.31
2022-09-23T22:19:07.603Z,8.20
2022-09-23T22:21:36.671Z,8.24
2022-09-23T22:24:05.095Z,7.89
2022-09-23T22:26:34.632Z,8.17
2022-09-23T22:29:19.868Z,8.21
2022-09-23T22:32:05.192Z,7.89
2022-09-23T22:34:49.053Z,7.63
2022-09-23T22:37:21.666Z,8.23
2022-09-23T22:39:48.319Z,8.33
2022-09-23T22:42:14.964Z,7.87
2022-09-23T22:44:41.561Z,7.91
2022-09-23T22:47:09.749Z,7.13
2022-09-23T22:49:36.868Z,8.06
2022-09-23T22:52:07.024Z,8.08
2022-09-23T22:54:34.548Z,8.07
2022-09-23T22:57:03.420Z,8.12
2022-09-23T22:59:30.064Z,8.12
2022-09-23T23:01:57.579Z,8.00
2022-09-23T23:04:24.262Z,7.41
2022-09-23T23:06:51.028Z,8.00
2022-09-23T23:09:18.842Z,7.97
2022-09-23T23:11:47.200Z,7.69
2022-09-23T23:14:16.519Z,7.51
2022-09-23T23:16:45.199Z,7.85
2022-09-23T23:19:14.088Z,7.82
2022-09-23T23:21:44.904Z,7.79
2022-09-23T23:24:20.916Z,5.23
2022-09-23T23:26:48.696Z,6.09
2022-09-23T23:29:18.223Z,7.41
2022-09-23T23:31:45.365Z,7.19
2022-09-23T23:34:14.467Z,7.28
2022-09-23T23:36:41.488Z,7.44
2022-09-23T23:39:08.570Z,7.59
2022-09-23T23:41:35.678Z,7.51
2022-09-23T23:44:02.824Z,7.55
2022-09-23T23:46:31.375Z,7.35
2022-09-23T23:48:59.025Z,7.35
2022-09-23T23:51:26.661Z,7.04
2022-09-23T23:53:54.984Z,7.42
2022-09-23T23:56:23.959Z,7.44
2022-09-23T23:58:58.411Z,6.83
